Time;durP1;ratioP1;P1;durP2;ratioP2;P2;SDS_P1;SDS_P2;PMS_P1;PMS_P2;Temp;Humidity;BMP_temperature;BMP_pressure;BME280_temperature;BME280_humidity;BME280_pressure;Samples;Min_cycle;Max_cycle;Signal;HPM_P1;HPM_P2
2023/01/31 00:00:11;;;;;;;7.60;4.20;;;;;;;;;;103068;1331;42887;-35
2023/01/31 00:03:05;;;;;;;7.50;4.30;;;;;;;;;;102972;1331;44931;-35
2023/01/31 00:05:39;;;;;;;6.70;4.00;;;;;;;;;;103043;1331;41142;-35
2023/01/31 00:08:14;;;;;;;7.70;4.40;;;;;;;;;;102969;1331;43815;-35
2023/01/31 00:10:51;;;;;;;6.30;3.80;;;;;;;;;;103007;1330;42395;-35
2023/01/31 00:13:25;;;;;;;7.20;4.20;;;;;;;;;;102970;1331;45983;-35
2023/01/31 00:16:01;;;;;;;6.70;3.70;;;;;;;;;;102979;1331;41124;-34
2023/01/31 00:18:36;;;;;;;7.00;3.90;;;;;;;;;;102977;1331;45119;-34
2023/01/31 00:21:15;;;;;;;6.70;3.80;;;;;;;;;;102982;1331;42909;-34
2023/01/31 00:23:54;;;;;;;6.70;3.70;;;;;;;;;;102957;1331;44819;-34
2023/01/31 00:26:33;;;;;;;6.60;4.00;;;;;;;;;;102986;1331;41180;-34
2023/01/31 00:29:08;;;;;;;7.80;3.90;;;;;;;;;;102931;1331;43642;-34
2023/01/31 00:31:45;;;;;;;7.50;3.60;;;;;;;;;;102931;1331;42790;-34
2023/01/31 00:34:20;;;;;;;6.70;3.60;;;;;;;;;;102984;1330;39216;-34
2023/01/31 00:36:56;;;;;;;6.30;3.60;;;;;;;;;;102995;1331;40930;-34
2023/01/31 00:39:30;;;;;;;6.70;3.50;;;;;;;;;;102960;1331;44351;-34
2023/01/31 00:42:04;;;;;;;6.10;3.70;;;;;;;;;;102928;1330;42339;-34
2023/01/31 00:44:44;;;;;;;5.90;3.40;;;;;;;;;;102917;1336;39310;-34
2023/01/31 00:47:18;;;;;;;6.20;3.20;;;;;;;;;;102976;1331;41114;-34
2023/01/31 00:49:52;;;;;;;6.60;3.60;;;;;;;;;;102992;1331;45224;-34
2023/01/31 00:52:28;;;;;;;7.30;3.70;;;;;;;;;;102986;1336;42406;-35
2023/01/31 00:55:02;;;;;;;5.90;3.30;;;;;;;;;;103001;1330;39291;-34
2023/01/31 00:57:41;;;;;;;5.80;3.10;;;;;;;;;;102961;1331;41270;-34
2023/01/31 01:00:21;;;;;;;6.40;3.10;;;;;;;;;;103016;1334;43848;-34
2023/01/31 01:02:56;;;;;;;6.20;3.30;;;;;;;;;;102964;1331;42328;-34
2023/01/31 01:05:32;;;;;;;6.20;3.20;;;;;;;;;;103003;1331;39216;-34
2023/01/31 01:08:11;;;;;;;5.90;3.30;;;;;;;;;;102981;1331;40697;-34
2023/01/31 01:10:45;;;;;;;5.70;3.10;;;;;;;;;;102921;1331;43877;-34
2023/01/31 01:13:22;;;;;;;6.00;3.30;;;;;;;;;;102804;1334;42361;-33
2023/01/31 01:15:56;;;;;;;5.70;3.10;;;;;;;;;;102949;1335;39301;-34
2023/01/31 01:18:34;;;;;;;6.30;3.00;;;;;;;;;;103016;1331;41107;-33
2023/01/31 01:21:17;;;;;;;6.90;3.20;;;;;;;;;;102862;1331;175823;-34
2023/01/31 01:23:53;;;;;;;5.40;3.00;;;;;;;;;;102924;1330;42662;-34
2023/01/31 01:26:30;;;;;;;4.80;2.70;;;;;;;;;;102965;1332;39200;-34
2023/01/31 01:29:05;;;;;;;5.10;2.90;;;;;;;;;;102870;1330;175828;-34
2023/01/31 01:31:43;;;;;;;5.70;2.90;;;;;;;;;;102956;1331;43600;-34
2023/01/31 01:34:19;;;;;;;6.90;3.10;;;;;;;;;;102923;1330;42387;-34
2023/01/31 01:36:56;;;;;;;5.60;3.00;;;;;;;;;;103029;1331;39174;-34
2023/01/31 01:39:32;;;;;;;5.60;2.90;;;;;;;;;;102953;1331;40948;-34
2023/01/31 01:42:13;;;;;;;6.60;3.10;;;;;;;;;;102995;1331;45193;-34
2023/01/31 01:44:52;;;;;;;5.70;2.70;;;;;;;;;;102927;1330;43100;-34
2023/01/31 01:47:43;;;;;;;5.90;2.70;;;;;;;;;;102849;1331;192666;-34
2023/01/31 01:50:25;;;;;;;6.40;3.10;;;;;;;;;;102950;1331;41128;-34
2023/01/31 01:53:05;;;;;;;6.00;2.80;;;;;;;;;;102975;1331;43677;-34
2023/01/31 01:55:42;;;;;;;;;;;;;;;;;;102984;1336;48180;-34
2023/01/31 01:58:24;;;;;;;6.20;2.80;;;;;;;;;;102957;1331;40434;-34
2023/01/31 02:01:00;;;;;;;4.80;2.50;;;;;;;;;;102969;1331;43520;-34
2023/01/31 02:03:37;;;;;;;5.40;2.90;;;;;;;;;;102988;1331;43637;-34
2023/01/31 02:06:15;;;;;;;5.60;2.70;;;;;;;;;;102758;1331;318764;-35
2023/01/31 02:08:51;;;;;;;5.40;2.60;;;;;;;;;;103003;1331;40592;-36
2023/01/31 02:11:28;;;;;;;5.40;2.80;;;;;;;;;;103001;1331;40961;-37
2023/01/31 02:14:06;;;;;;;5.60;2.80;;;;;;;;;;102968;1331;45340;-37
2023/01/31 02:16:40;;;;;;;4.60;2.50;;;;;;;;;;103009;1331;42818;-35
2023/01/31 02:19:30;;;;;;;5.20;2.60;;;;;;;;;;103025;1331;39301;-35
2023/01/31 02:22:23;;;;;;;5.40;2.60;;;;;;;;;;103025;1330;42404;-35
2023/01/31 02:25:57;;;;;;;5.30;2.60;;;;;;;;;;102990;1331;43781;-35
2023/01/31 02:29:14;;;;;;;5.50;2.50;;;;;;;;;;103004;1330;42536;-35
2023/01/31 02:32:26;;;;;;;5.30;2.60;;;;;;;;;;103007;1330;39477;-35
2023/01/31 02:35:19;;;;;;;5.10;2.80;;;;;;;;;;102966;1331;40908;-35
2023/01/31 02:38:12;;;;;;;5.30;2.40;;;;;;;;;;103020;1330;43672;-35
2023/01/31 02:40:58;;;;;;;5.20;2.40;;;;;;;;;;103001;1331;42574;-34
2023/01/31 02:46:44;;;;;;;4.40;2.30;;;;;;;;;;102946;1331;41123;-34
2023/01/31 02:49:38;;;;;;;5.70;2.40;;;;;;;;;;102989;1331;43725;-34
2023/01/31 02:52:29;;;;;;;5.10;2.50;;;;;;;;;;102969;1331;42670;-34
2023/01/31 02:58:12;;;;;;;5.40;2.40;;;;;;;;;;102873;1333;43224;-35
2023/01/31 03:00:48;;;;;;;5.10;2.40;;;;;;;;;;102967;1331;45118;-35
2023/01/31 03:03:30;;;;;;;5.50;2.30;;;;;;;;;;102972;1331;43873;-35
2023/01/31 03:06:58;;;;;;;4.60;2.10;;;;;;;;;;102981;1330;40644;-35
2023/01/31 03:09:53;;;;;;;4.90;2.40;;;;;;;;;;102386;1337;41037;-35
2023/01/31 03:12:44;;;;;;;5.00;2.20;;;;;;;;;;102425;1337;43867;-35
2023/01/31 03:18:49;;;;;;;4.90;2.10;;;;;;;;;;102983;1331;39491;-35
2023/01/31 03:21:32;;;;;;;5.00;2.00;;;;;;;;;;103005;1331;41106;-35
2023/01/31 03:24:12;;;;;;;4.90;2.20;;;;;;;;;;102973;1331;43781;-35
2023/01/31 03:26:47;;;;;;;4.80;2.00;;;;;;;;;;102946;1331;42198;-34
2023/01/31 03:29:22;;;;;;;4.70;2.10;;;;;;;;;;102877;1331;39230;-34
2023/01/31 03:32:03;;;;;;;4.90;2.10;;;;;;;;;;102991;1330;40996;-34
2023/01/31 03:34:41;;;;;;;4.80;2.20;;;;;;;;;;102965;1331;43514;-34
2023/01/31 03:37:26;;;;;;;4.50;2.20;;;;;;;;;;102947;1330;42807;-34
2023/01/31 03:40:07;;;;;;;4.80;2.00;;;;;;;;;;102923;1331;39279;-34
2023/01/31 03:42:48;;;;;;;5.40;2.30;;;;;;;;;;103014;1331;40661;-34
2023/01/31 03:45:28;;;;;;;4.40;1.90;;;;;;;;;;102940;1330;44251;-34
2023/01/31 03:48:09;;;;;;;5.40;2.10;;;;;;;;;;103020;1331;49449;-34
2023/01/31 03:50:47;;;;;;;4.80;2.10;;;;;;;;;;102917;1331;39133;-34
2023/01/31 03:53:30;;;;;;;4.90;2.20;;;;;;;;;;103019;1331;40836;-34
2023/01/31 03:56:16;;;;;;;5.20;2.10;;;;;;;;;;102948;1331;43993;-34
2023/01/31 03:59:00;;;;;;;4.40;2.00;;;;;;;;;;102948;1331;42783;-34
2023/01/31 04:01:39;;;;;;;4.10;1.90;;;;;;;;;;102977;1330;39313;-34
2023/01/31 04:04:18;;;;;;;4.40;1.90;;;;;;;;;;102994;1330;41166;-36
2023/01/31 04:06:52;;;;;;;4.70;2.00;;;;;;;;;;102972;1331;43838;-35
2023/01/31 04:09:26;;;;;;;5.10;1.90;;;;;;;;;;102967;1331;42830;-35
2023/01/31 04:12:05;;;;;;;4.80;1.70;;;;;;;;;;102985;1331;39322;-35
2023/01/31 04:14:41;;;;;;;4.40;1.80;;;;;;;;;;102952;1331;42994;-34
2023/01/31 04:17:18;;;;;;;5.20;1.90;;;;;;;;;;102919;1330;43950;-35
2023/01/31 04:19:55;;;;;;;4.30;1.70;;;;;;;;;;102865;1331;175890;-35
2023/01/31 04:22:31;;;;;;;4.20;1.70;;;;;;;;;;102959;1347;39512;-35
2023/01/31 04:25:09;;;;;;;4.70;1.70;;;;;;;;;;102973;1331;40958;-35
2023/01/31 04:27:44;;;;;;;5.00;1.80;;;;;;;;;;102951;1331;43831;-35
2023/01/31 04:30:19;;;;;;;5.60;2.30;;;;;;;;;;102987;1331;42981;-35
2023/01/31 04:32:57;;;;;;;5.00;1.80;;;;;;;;;;102850;1331;39130;-35
2023/01/31 04:35:33;;;;;;;4.40;1.70;;;;;;;;;;103007;1331;40943;-35
2023/01/31 04:38:10;;;;;;;5.80;1.80;;;;;;;;;;102945;1331;44827;-35
2023/01/31 04:40:47;;;;;;;5.60;2.20;;;;;;;;;;103030;1331;42333;-35
2023/01/31 04:43:23;;;;;;;4.70;1.90;;;;;;;;;;102988;1331;39299;-35
2023/01/31 04:45:59;;;;;;;5.20;2.00;;;;;;;;;;102963;1331;42273;-34
2023/01/31 04:48:35;;;;;;;5.50;2.00;;;;;;;;;;102965;1330;43692;-34
2023/01/31 04:51:17;;;;;;;5.10;1.90;;;;;;;;;;102953;1331;43698;-34
2023/01/31 04:53:56;;;;;;;5.70;2.00;;;;;;;;;;103010;1331;39438;-34
2023/01/31 04:56:31;;;;;;;5.10;1.70;;;;;;;;;;102994;1331;40931;-35
2023/01/31 04:59:06;;;;;;;5.10;1.80;;;;;;;;;;102986;1331;45758;-35
2023/01/31 05:01:41;;;;;;;6.60;1.90;;;;;;;;;;102980;1331;42833;-35
2023/01/31 05:04:21;;;;;;;6.70;1.90;;;;;;;;;;102992;1331;39395;-34
2023/01/31 05:06:58;;;;;;;5.80;1.60;;;;;;;;;;103022;1333;42359;-35
2023/01/31 05:09:33;;;;;;;5.80;1.80;;;;;;;;;;102971;1331;43845;-35
2023/01/31 05:12:11;;;;;;;5.00;1.60;;;;;;;;;;102966;1330;42267;-35
2023/01/31 05:14:50;;;;;;;5.10;1.60;;;;;;;;;;103047;1331;39314;-35
2023/01/31 05:17:28;;;;;;;5.40;2.10;;;;;;;;;;103010;1331;42060;-35
2023/01/31 05:20:04;;;;;;;4.80;1.70;;;;;;;;;;103107;1331;50229;-35
2023/01/31 05:22:38;;;;;;;5.60;2.10;;;;;;;;;;103029;1331;42305;-35
2023/01/31 05:25:19;;;;;;;5.00;1.70;;;;;;;;;;103019;1331;39485;-35
2023/01/31 05:27:54;;;;;;;5.20;1.80;;;;;;;;;;103083;1330;40918;-35
2023/01/31 05:30:32;;;;;;;5.60;1.80;;;;;;;;;;102928;1331;175567;-35
2023/01/31 05:33:07;;;;;;;5.00;1.60;;;;;;;;;;102998;1340;42951;-35
2023/01/31 05:35:45;;;;;;;5.90;1.80;;;;;;;;;;103047;1331;39155;-35
2023/01/31 05:38:21;;;;;;;5.60;1.90;;;;;;;;;;102959;1331;40924;-35
2023/01/31 05:40:57;;;;;;;5.70;1.90;;;;;;;;;;103084;1331;45482;-35
2023/01/31 05:43:32;;;;;;;5.70;2.00;;;;;;;;;;103025;1331;42454;-35
2023/01/31 05:46:11;;;;;;;6.30;1.80;;;;;;;;;;103056;1330;39274;-35
2023/01/31 05:48:48;;;;;;;5.10;1.80;;;;;;;;;;103006;1331;42133;-35
2023/01/31 05:51:23;;;;;;;4.90;1.70;;;;;;;;;;102991;1331;43699;-35
2023/01/31 05:53:57;;;;;;;6.10;2.00;;;;;;;;;;103044;1331;43801;-35
2023/01/31 05:56:34;;;;;;;4.50;1.50;;;;;;;;;;103032;1331;40636;-35
2023/01/31 05:59:09;;;;;;;5.50;1.60;;;;;;;;;;103035;1331;41136;-35
2023/01/31 06:01:48;;;;;;;6.70;1.70;;;;;;;;;;103057;1331;44588;-35
2023/01/31 06:04:22;;;;;;;5.80;2.10;;;;;;;;;;103084;1331;42465;-35
2023/01/31 06:06:57;;;;;;;4.20;1.60;;;;;;;;;;103029;1331;39366;-35
2023/01/31 06:09:34;;;;;;;5.50;1.80;;;;;;;;;;103014;1330;40984;-35
2023/01/31 06:12:14;;;;;;;4.50;1.90;;;;;;;;;;102988;1340;43762;-35
2023/01/31 06:14:52;;;;;;;5.60;2.00;;;;;;;;;;103096;1330;42543;-36
2023/01/31 06:17:30;;;;;;;5.10;1.70;;;;;;;;;;103099;1333;40637;-35
2023/01/31 06:20:10;;;;;;;4.60;1.80;;;;;;;;;;103078;1331;41226;-35
2023/01/31 06:22:45;;;;;;;5.60;1.50;;;;;;;;;;103062;1331;44015;-35
2023/01/31 06:25:21;;;;;;;4.80;1.60;;;;;;;;;;103076;1331;42646;-35
2023/01/31 06:27:57;;;;;;;4.90;1.50;;;;;;;;;;103000;1331;39277;-35
2023/01/31 06:30:35;;;;;;;5.30;1.70;;;;;;;;;;103035;1331;41161;-35
2023/01/31 06:33:11;;;;;;;5.40;1.40;;;;;;;;;;103070;1331;43945;-35
2023/01/31 06:35:45;;;;;;;5.60;1.60;;;;;;;;;;103064;1337;42659;-35
2023/01/31 06:38:19;;;;;;;4.50;1.50;;;;;;;;;;103067;1331;41970;-35
2023/01/31 06:40:53;;;;;;;4.60;1.60;;;;;;;;;;103012;1331;40913;-35
2023/01/31 06:43:28;;;;;;;5.40;1.70;;;;;;;;;;103089;1331;43856;-35
2023/01/31 06:46:03;;;;;;;4.40;1.50;;;;;;;;;;103107;1331;42390;-35
2023/01/31 06:48:37;;;;;;;6.50;1.90;;;;;;;;;;103091;1331;39348;-35
2023/01/31 06:51:11;;;;;;;4.60;1.60;;;;;;;;;;103030;1331;43297;-35
2023/01/31 06:53:45;;;;;;;4.10;1.30;;;;;;;;;;103105;1331;45030;-35
2023/01/31 06:56:19;;;;;;;4.50;1.60;;;;;;;;;;103084;1330;44259;-37
2023/01/31 06:58:53;;;;;;;4.60;1.60;;;;;;;;;;103161;1331;40676;-36
2023/01/31 07:01:27;;;;;;;4.60;1.40;;;;;;;;;;103043;1330;40928;-37
2023/01/31 07:04:03;;;;;;;4.80;1.40;;;;;;;;;;103021;1331;43805;-37
2023/01/31 07:06:38;;;;;;;5.40;1.50;;;;;;;;;;103129;1331;42531;-37
2023/01/31 07:09:12;;;;;;;4.70;1.40;;;;;;;;;;103151;1331;39539;-37
2023/01/31 07:11:46;;;;;;;4.00;1.30;;;;;;;;;;102914;1331;41190;-37
2023/01/31 07:14:21;;;;;;;5.30;1.60;;;;;;;;;;103074;1331;43698;-37
2023/01/31 07:16:55;;;;;;;4.50;1.40;;;;;;;;;;103111;1330;42580;-37
2023/01/31 07:19:30;;;;;;;4.40;1.40;;;;;;;;;;103103;1332;40596;-37
2023/01/31 07:22:04;;;;;;;4.20;1.30;;;;;;;;;;103081;1331;40990;-37
2023/01/31 07:24:37;;;;;;;4.20;1.30;;;;;;;;;;103111;1331;43894;-37
2023/01/31 07:27:14;;;;;;;4.30;1.30;;;;;;;;;;103098;1331;42528;-37
2023/01/31 07:29:48;;;;;;;4.40;1.50;;;;;;;;;;103141;1330;39568;-37
2023/01/31 07:32:22;;;;;;;3.60;1.20;;;;;;;;;;103053;1331;40916;-37
2023/01/31 07:34:58;;;;;;;4.80;1.50;;;;;;;;;;103090;1331;43790;-37
2023/01/31 07:37:33;;;;;;;5.10;1.70;;;;;;;;;;103012;1331;42680;-37
2023/01/31 07:40:09;;;;;;;4.50;1.50;;;;;;;;;;103015;1331;39464;-36
2023/01/31 07:42:44;;;;;;;5.00;1.30;;;;;;;;;;103026;1331;41452;-37
2023/01/31 07:45:21;;;;;;;4.30;1.50;;;;;;;;;;102978;1331;44497;-37
2023/01/31 07:47:59;;;;;;;5.00;1.40;;;;;;;;;;103041;1331;42597;-37
2023/01/31 07:50:37;;;;;;;;;;;;;;;;;;103095;1340;39938;-37
2023/01/31 07:53:14;;;;;;;5.40;1.50;;;;;;;;;;103062;1331;46587;-37
2023/01/31 07:55:49;;;;;;;4.20;1.40;;;;;;;;;;103147;1330;43848;-37
2023/01/31 07:58:23;;;;;;;4.60;1.30;;;;;;;;;;103044;1331;42839;-37
2023/01/31 08:03:48;;;;;;;;;;;;;;;;;;103107;1331;46448;-38
2023/01/31 08:06:23;;;;;;;4.70;1.60;;;;;;;;;;102932;1331;175545;-37
2023/01/31 08:08:57;;;;;;;4.70;1.50;;;;;;;;;;103105;1331;42579;-37
2023/01/31 08:11:32;;;;;;;4.30;1.60;;;;;;;;;;103062;1331;39383;-36
2023/01/31 08:14:07;;;;;;;5.00;1.60;;;;;;;;;;103051;1331;45790;-36
2023/01/31 08:16:42;;;;;;;5.80;1.90;;;;;;;;;;103122;1331;45022;-37
2023/01/31 08:19:16;;;;;;;5.60;1.70;;;;;;;;;;103102;1331;42660;-37
2023/01/31 08:21:52;;;;;;;5.10;1.60;;;;;;;;;;103057;1331;39617;-37
2023/01/31 08:24:26;;;;;;;5.00;1.70;;;;;;;;;;103053;1331;46349;-37
2023/01/31 08:27:00;;;;;;;5.10;1.50;;;;;;;;;;103042;1331;45585;-37
2023/01/31 08:29:37;;;;;;;5.10;1.60;;;;;;;;;;102404;1331;893675;-37
2023/01/31 08:32:14;;;;;;;5.60;2.00;;;;;;;;;;103062;1331;39264;-37
2023/01/31 08:34:53;;;;;;;5.20;1.50;;;;;;;;;;102897;1331;175759;-37
2023/01/31 08:37:31;;;;;;;5.90;1.60;;;;;;;;;;103011;1331;43810;-37
2023/01/31 08:40:13;;;;;;;4.80;1.30;;;;;;;;;;103129;1331;42382;-37
2023/01/31 08:42:55;;;;;;;4.90;1.60;;;;;;;;;;103031;1331;39315;-37
2023/01/31 08:45:29;;;;;;;;;;;;;;;;;;103083;1340;49138;-37
2023/01/31 08:48:09;;;;;;;4.80;1.50;;;;;;;;;;102943;1331;45047;-37
2023/01/31 08:50:44;;;;;;;5.20;1.60;;;;;;;;;;102917;1331;42689;-37
2023/01/31 08:53:18;;;;;;;4.50;1.50;;;;;;;;;;102911;1331;40812;-37
2023/01/31 08:55:52;;;;;;;5.30;1.50;;;;;;;;;;102944;1331;41638;-36
2023/01/31 08:58:26;;;;;;;4.60;1.50;;;;;;;;;;102945;1331;43709;-36
2023/01/31 09:01:08;;;;;;;5.50;1.50;;;;;;;;;;102926;1331;42675;-37
2023/01/31 09:03:44;;;;;;;5.00;1.50;;;;;;;;;;103008;1331;39451;-37
2023/01/31 09:06:24;;;;;;;5.20;1.50;;;;;;;;;;103097;1331;41144;-37
2023/01/31 09:09:00;;;;;;;5.40;1.60;;;;;;;;;;103111;1330;43882;-37
2023/01/31 09:11:34;;;;;;;4.70;1.60;;;;;;;;;;103105;1331;45071;-37
2023/01/31 09:14:09;;;;;;;4.70;1.50;;;;;;;;;;103070;1330;39628;-36
2023/01/31 09:16:46;;;;;;;5.70;1.60;;;;;;;;;;103103;1330;40976;-36
2023/01/31 09:19:24;;;;;;;5.70;1.70;;;;;;;;;;103124;1331;43758;-36
2023/01/31 09:22:03;;;;;;;5.30;1.60;;;;;;;;;;103188;1330;42601;-36
2023/01/31 09:24:37;;;;;;;5.80;1.70;;;;;;;;;;103035;1331;40518;-36
2023/01/31 09:27:11;;;;;;;5.50;1.60;;;;;;;;;;103077;1340;40927;-36
2023/01/31 09:29:47;;;;;;;4.90;1.70;;;;;;;;;;103113;1330;43775;-36
2023/01/31 09:32:24;;;;;;;5.40;1.50;;;;;;;;;;103130;1331;42687;-36
2023/01/31 09:35:01;;;;;;;5.40;1.50;;;;;;;;;;103051;1330;39199;-36
2023/01/31 09:37:38;;;;;;;6.20;1.80;;;;;;;;;;103064;1330;40868;-36
2023/01/31 09:40:23;;;;;;;5.10;1.60;;;;;;;;;;102939;1331;175401;-36
2023/01/31 09:43:00;;;;;;;5.10;1.60;;;;;;;;;;103110;1331;42576;-37
2023/01/31 09:45:41;;;;;;;5.70;1.70;;;;;;;;;;102931;1330;39435;-36
2023/01/31 09:48:22;;;;;;;6.10;1.80;;;;;;;;;;102857;1331;41089;-36
2023/01/31 09:50:59;;;;;;;5.50;1.60;;;;;;;;;;102831;1331;43972;-36
2023/01/31 09:53:37;;;;;;;5.20;1.70;;;;;;;;;;102781;1331;42502;-36
2023/01/31 09:56:28;;;;;;;5.10;1.70;;;;;;;;;;102800;1331;40617;-37
2023/01/31 09:59:15;;;;;;;5.10;1.70;;;;;;;;;;102834;1331;41217;-36
2023/01/31 10:02:00;;;;;;;5.00;1.70;;;;;;;;;;102590;1335;43654;-36
2023/01/31 10:04:58;;;;;;;4.80;1.40;;;;;;;;;;102816;1331;42463;-35
2023/01/31 10:07:37;;;;;;;4.90;1.70;;;;;;;;;;102603;1331;45074;-36
2023/01/31 10:10:27;;;;;;;5.20;1.70;;;;;;;;;;102818;1331;40863;-36
2023/01/31 10:13:10;;;;;;;6.20;1.90;;;;;;;;;;102852;1331;43715;-36
2023/01/31 10:15:53;;;;;;;5.30;1.80;;;;;;;;;;102864;1331;42347;-36
2023/01/31 10:18:32;;;;;;;5.00;1.50;;;;;;;;;;102802;1333;39351;-37
2023/01/31 10:21:15;;;;;;;5.00;1.70;;;;;;;;;;102805;1331;40734;-36
2023/01/31 10:23:54;;;;;;;;;;;;;;;;;;102847;1333;45281;-36
2023/01/31 10:26:36;;;;;;;5.20;1.70;;;;;;;;;;102672;1331;175410;-34
2023/01/31 10:29:27;;;;;;;4.80;1.70;;;;;;;;;;102823;1331;39335;-34
2023/01/31 10:32:11;;;;;;;5.40;1.70;;;;;;;;;;102678;1331;175415;-36
2023/01/31 10:34:53;;;;;;;5.40;1.70;;;;;;;;;;102853;1331;44938;-35
2023/01/31 10:37:40;;;;;;;5.40;1.80;;;;;;;;;;102793;1331;43886;-34
2023/01/31 10:40:22;;;;;;;5.10;1.80;;;;;;;;;;102832;1331;40495;-35
2023/01/31 10:43:11;;;;;;;5.40;1.80;;;;;;;;;;102833;1331;40671;-35
2023/01/31 10:45:54;;;;;;;4.90;1.80;;;;;;;;;;102915;1331;43876;-34
2023/01/31 10:48:32;;;;;;;5.40;1.70;;;;;;;;;;102868;1330;48579;-35
2023/01/31 10:51:25;;;;;;;5.20;1.70;;;;;;;;;;102795;1334;39609;-35
2023/01/31 10:54:30;;;;;;;5.20;1.90;;;;;;;;;;102853;1331;42237;-35
2023/01/31 10:57:10;;;;;;;5.20;1.70;;;;;;;;;;102779;1331;44176;-34
2023/01/31 10:59:48;;;;;;;5.40;1.60;;;;;;;;;;102773;1331;43980;-35
2023/01/31 11:02:27;;;;;;;8.50;2.60;;;;;;;;;;102879;1331;39519;-33
2023/01/31 11:05:13;;;;;;;6.20;2.30;;;;;;;;;;102828;1331;40957;-35
2023/01/31 11:07:48;;;;;;;6.00;2.30;;;;;;;;;;102805;1334;44385;-35
2023/01/31 11:10:33;;;;;;;5.70;2.00;;;;;;;;;;102824;1331;42162;-34
2023/01/31 11:13:08;;;;;;;5.40;1.90;;;;;;;;;;102777;1331;40724;-35
2023/01/31 11:15:43;;;;;;;5.80;1.90;;;;;;;;;;102829;1333;41390;-35
2023/01/31 11:18:31;;;;;;;5.80;1.90;;;;;;;;;;102797;1330;43842;-35
2023/01/31 11:21:05;;;;;;;7.00;1.90;;;;;;;;;;102869;1331;42675;-36
2023/01/31 11:23:42;;;;;;;5.80;2.10;;;;;;;;;;102814;1333;39385;-35
2023/01/31 11:26:27;;;;;;;5.00;1.70;;;;;;;;;;102805;1331;40932;-35
2023/01/31 11:29:02;;;;;;;5.50;1.70;;;;;;;;;;102821;1331;44019;-35
2023/01/31 11:31:47;;;;;;;6.00;2.00;;;;;;;;;;102828;1331;42351;-35
2023/01/31 11:34:28;;;;;;;4.90;1.70;;;;;;;;;;102828;1334;40852;-35
2023/01/31 11:37:23;;;;;;;5.10;1.80;;;;;;;;;;102793;1331;42326;-35
2023/01/31 11:40:09;;;;;;;6.10;1.80;;;;;;;;;;102811;1331;43815;-36
2023/01/31 11:42:56;;;;;;;5.40;2.20;;;;;;;;;;102804;1331;43773;-35
2023/01/31 11:45:36;;;;;;;4.70;1.60;;;;;;;;;;102791;1331;39776;-35
2023/01/31 11:48:21;;;;;;;4.20;1.60;;;;;;;;;;102795;1331;41123;-35
2023/01/31 11:50:59;;;;;;;5.50;1.70;;;;;;;;;;102856;1331;43770;-35
2023/01/31 11:53:43;;;;;;;4.90;1.70;;;;;;;;;;102929;1331;42497;-35
2023/01/31 11:56:22;;;;;;;5.20;1.70;;;;;;;;;;102935;1329;39535;-35
2023/01/31 11:59:03;;;;;;;5.00;1.90;;;;;;;;;;102740;1333;41440;-35
2023/01/31 12:01:47;;;;;;;5.20;1.70;;;;;;;;;;102739;1333;45986;-35
2023/01/31 12:04:26;;;;;;;5.40;1.70;;;;;;;;;;102615;1334;44196;-42
2023/01/31 12:07:09;;;;;;;5.30;1.90;;;;;;;;;;102648;1334;39137;-33
2023/01/31 12:09:47;;;;;;;5.40;1.80;;;;;;;;;;102880;1331;42417;-35
2023/01/31 12:12:35;;;;;;;4.80;1.70;;;;;;;;;;102696;1336;44837;-34
2023/01/31 12:15:21;;;;;;;5.10;1.90;;;;;;;;;;102994;1331;42296;-33
2023/01/31 12:17:58;;;;;;;5.10;1.80;;;;;;;;;;102795;1330;175381;-36
2023/01/31 12:20:49;;;;;;;5.00;1.70;;;;;;;;;;102889;1334;40619;-35
2023/01/31 12:23:38;;;;;;;4.90;1.80;;;;;;;;;;102900;1331;44932;-36
2023/01/31 12:26:22;;;;;;;4.60;2.00;;;;;;;;;;102895;1335;44835;-33
2023/01/31 12:29:26;;;;;;;5.80;2.00;;;;;;;;;;102833;1331;39243;-33
2023/01/31 12:32:35;;;;;;;5.70;2.20;;;;;;;;;;103001;1331;41077;-35
2023/01/31 12:35:34;;;;;;;4.70;1.80;;;;;;;;;;102964;1331;44208;-34
2023/01/31 12:38:27;;;;;;;4.80;1.80;;;;;;;;;;102395;1331;894411;-35
2023/01/31 12:41:20;;;;;;;4.70;1.60;;;;;;;;;;102729;1334;45767;-36
2023/01/31 12:44:22;;;;;;;4.50;1.70;;;;;;;;;;102734;1334;42692;-36
2023/01/31 12:47:28;;;;;;;4.80;1.80;;;;;;;;;;102718;1334;45249;-36
2023/01/31 12:50:23;;;;;;;4.90;1.80;;;;;;;;;;102828;1330;42778;-36
2023/01/31 12:53:33;;;;;;;5.00;1.60;;;;;;;;;;102950;1331;39842;-36
2023/01/31 12:56:50;;;;;;;4.80;1.80;;;;;;;;;;102978;1331;41071;-36
2023/01/31 12:59:40;;;;;;;5.30;1.80;;;;;;;;;;102883;1331;44115;-34
2023/01/31 13:02:40;;;;;;;4.90;1.90;;;;;;;;;;102804;1331;42733;-35
2023/01/31 13:05:33;;;;;;;5.30;1.70;;;;;;;;;;102795;1331;39554;-39
2023/01/31 13:08:17;;;;;;;5.10;1.80;;;;;;;;;;102852;1330;41325;-37
2023/01/31 13:10:59;;;;;;;4.10;1.60;;;;;;;;;;102930;1331;44456;-36
2023/01/31 13:13:40;;;;;;;5.00;2.20;;;;;;;;;;102988;1330;42463;-36
2023/01/31 13:16:23;;;;;;;4.10;1.60;;;;;;;;;;102886;1331;39637;-36
2023/01/31 13:19:08;;;;;;;4.50;1.60;;;;;;;;;;102977;1337;41158;-35
2023/01/31 13:21:54;;;;;;;4.60;1.70;;;;;;;;;;102649;1334;50836;-33
2023/01/31 13:24:36;;;;;;;5.20;1.90;;;;;;;;;;102714;1334;43976;-34
2023/01/31 13:27:25;;;;;;;4.30;1.60;;;;;;;;;;102719;1332;39609;-33
2023/01/31 13:30:13;;;;;;;4.90;1.80;;;;;;;;;;102761;1329;42545;-33
2023/01/31 13:32:51;;;;;;;5.00;1.60;;;;;;;;;;103010;1331;43623;-34
2023/01/31 13:35:30;;;;;;;4.70;1.70;;;;;;;;;;102993;1330;44636;-39
2023/01/31 13:38:12;;;;;;;5.10;1.80;;;;;;;;;;102795;1331;39601;-37
2023/01/31 13:40:52;;;;;;;5.20;1.90;;;;;;;;;;102891;1334;40962;-36
2023/01/31 13:43:29;;;;;;;4.30;1.60;;;;;;;;;;102723;1343;44209;-37
2023/01/31 13:46:10;;;;;;;4.50;1.70;;;;;;;;;;102712;1343;42711;-37
2023/01/31 13:48:49;;;;;;;4.70;1.60;;;;;;;;;;102695;1335;39335;-38
2023/01/31 13:51:33;;;;;;;5.10;1.60;;;;;;;;;;102628;1333;175374;-37
2023/01/31 13:54:16;;;;;;;4.40;1.70;;;;;;;;;;102675;1334;44168;-37
2023/01/31 13:56:55;;;;;;;4.90;1.70;;;;;;;;;;102656;1334;42591;-38
2023/01/31 13:59:36;;;;;;;4.80;1.60;;;;;;;;;;102703;1334;39369;-36
2023/01/31 14:02:21;;;;;;;4.20;1.40;;;;;;;;;;102699;1334;41326;-36
2023/01/31 14:05:06;;;;;;;4.60;1.50;;;;;;;;;;102742;1333;43953;-39
2023/01/31 14:07:44;;;;;;;4.60;1.50;;;;;;;;;;102462;1336;42605;-37
2023/01/31 14:10:49;;;;;;;4.30;1.60;;;;;;;;;;102713;1333;39283;-38
2023/01/31 14:13:42;;;;;;;5.00;1.80;;;;;;;;;;102604;1335;47966;-37
2023/01/31 14:16:39;;;;;;;4.00;1.60;;;;;;;;;;102595;1334;44110;-36
2023/01/31 14:20:04;;;;;;;4.90;1.70;;;;;;;;;;102644;1334;42770;-36
2023/01/31 14:22:41;;;;;;;4.50;1.70;;;;;;;;;;102651;1332;39448;-45
2023/01/31 14:25:44;;;;;;;4.60;1.80;;;;;;;;;;102714;1332;41149;-36
2023/01/31 14:28:18;;;;;;;4.20;1.90;;;;;;;;;;102572;1332;175718;-38
2023/01/31 14:30:52;;;;;;;4.30;1.70;;;;;;;;;;102707;1334;44285;-36
2023/01/31 14:33:33;;;;;;;3.60;1.60;;;;;;;;;;102675;1333;39516;-37
2023/01/31 14:36:49;;;;;;;4.70;1.80;;;;;;;;;;102678;1332;42293;-36
2023/01/31 14:40:03;;;;;;;4.70;1.60;;;;;;;;;;102655;1334;44074;-39
2023/01/31 14:43:07;;;;;;;3.90;1.50;;;;;;;;;;102559;1334;42981;-38
2023/01/31 14:46:00;;;;;;;4.10;1.60;;;;;;;;;;102733;1333;40835;-36
2023/01/31 14:49:12;;;;;;;4.30;1.70;;;;;;;;;;102747;1333;42404;-36
2023/01/31 14:52:06;;;;;;;5.20;1.90;;;;;;;;;;102625;1333;44105;-36
2023/01/31 14:55:03;;;;;;;4.70;2.00;;;;;;;;;;102787;1331;48649;-34
2023/01/31 14:57:52;;;;;;;4.70;2.00;;;;;;;;;;102767;1333;40663;-34
2023/01/31 15:00:32;;;;;;;4.70;1.70;;;;;;;;;;102787;1334;41146;-34
2023/01/31 15:03:12;;;;;;;4.00;1.50;;;;;;;;;;102860;1331;44260;-35
2023/01/31 15:05:50;;;;;;;4.30;1.60;;;;;;;;;;102824;1331;42819;-35
2023/01/31 15:09:32;;;;;;;4.00;1.60;;;;;;;;;;102941;1331;39198;-35
2023/01/31 15:12:44;;;;;;;4.90;1.80;;;;;;;;;;102769;1331;41543;-35
2023/01/31 15:15:31;;;;;;;4.00;1.60;;;;;;;;;;102679;1334;49922;-35
2023/01/31 15:18:25;;;;;;;4.40;1.80;;;;;;;;;;102523;1336;42611;-36
2023/01/31 15:21:04;;;;;;;4.90;2.00;;;;;;;;;;102632;1334;39697;-35
2023/01/31 15:23:42;;;;;;;4.40;1.60;;;;;;;;;;102602;1334;41235;-35
2023/01/31 15:26:18;;;;;;;4.70;1.70;;;;;;;;;;102813;1334;45240;-35
2023/01/31 15:28:56;;;;;;;4.50;1.60;;;;;;;;;;103026;1331;42692;-35
2023/01/31 15:31:39;;;;;;;4.10;1.50;;;;;;;;;;102824;1333;40739;-35
2023/01/31 15:34:23;;;;;;;4.70;1.60;;;;;;;;;;102833;1334;41137;-35
2023/01/31 15:37:08;;;;;;;4.50;1.70;;;;;;;;;;102778;1333;44034;-35
2023/01/31 15:39:53;;;;;;;4.60;1.60;;;;;;;;;;102739;1334;45337;-35
2023/01/31 15:42:32;;;;;;;4.40;1.60;;;;;;;;;;102756;1334;39700;-35
2023/01/31 15:45:31;;;;;;;4.20;1.70;;;;;;;;;;102858;1331;42514;-35
2023/01/31 15:48:11;;;;;;;4.80;2.00;;;;;;;;;;102815;1331;44202;-35
2023/01/31 15:50:55;;;;;;;4.60;1.90;;;;;;;;;;102870;1333;42898;-35
2023/01/31 15:53:31;;;;;;;4.90;2.00;;;;;;;;;;102943;1331;39325;-35
2023/01/31 15:56:23;;;;;;;4.90;2.00;;;;;;;;;;102794;1333;41107;-35
2023/01/31 15:58:59;;;;;;;4.30;1.90;;;;;;;;;;102762;1334;43971;-35
2023/01/31 16:01:33;;;;;;;4.60;1.90;;;;;;;;;;100699;1331;3010899;-35
2023/01/31 16:04:14;;;;;;;5.40;2.10;;;;;;;;;;102550;1334;40712;-35
2023/01/31 16:06:52;;;;;;;4.80;1.90;;;;;;;;;;102862;1331;41264;-35